PDT,Max TemperatureF,Mean TemperatureF,Min TemperatureF,Max Dew PointF,MeanDew PointF,Min DewpointF,Max Humidity, Mean Humidity, Min Humidity, Max Sea Level PressureIn, Mean Sea Level PressureIn, Min Sea Level PressureIn, Max VisibilityMiles, Mean VisibilityMiles, Min VisibilityMiles, Max Wind SpeedMPH, Mean Wind SpeedMPH, Max Gust SpeedMPH,PrecipitationIn, CloudCover, Events, WindDirDegrees
2012-10-1,99,79,60,69,61,49,100,82,19,29.94,29.90,29.81,10,6,0,10,1,,0.00,0,Fog,243
2012-10-2,85,74,63,70,67,63,100,82,52,29.87,29.83,29.80,10,10,7,10,2,,0.00,0,,181
2012-10-3,79,71,63,73,67,64,100,96,69,30.04,29.93,29.88,10,3,0,12,3,,0.00,5,Fog,182
2012-10-4,75,67,60,64,62,61,100,85,64,30.12,30.07,30.04,10,9,5,10,3,,0.00,3,,255
2012-10-5,75,67,59,66,62,60,100,85,65,30.07,30.02,29.95,10,9,5,12,2,,0.00,5,,181
2012-10-6,76,68,59,68,63,59,100,94,72,29.98,29.94,29.88,10,9,2,12,2,,0.00,2,,147
2012-10-7,77,70,62,67,65,63,100,90,67,29.94,29.91,29.87,10,10,10,10,2,,0.00,2,,221
2012-10-8,75,67,59,66,63,59,100,87,69,29.99,29.96,29.93,10,10,10,10,3,,0.00,2,,206
2012-10-9,74,66,57,63,61,57,100,86,65,30.00,29.97,29.93,10,10,7,10,3,,0.00,4,,237
2012-10-10,74,65,57,61,59,56,100,82,59,30.01,29.96,29.91,10,10,10,14,4,,0.00,2,,239
2012-10-11,70,62,56,61,57,52,100,86,62,29.98,29.93,29.90,10,10,7,14,3,18,0.01,5,Rain-Thunderstorm,238
2012-10-12,71,62,52,59,56,53,99,81,53,30.16,30.10,29.99,10,10,10,14,3,,0.00,3,Tornado,331
2012-10-13,76,64,54,62,57,54,100,80,50,30.20,30.12,30.04,10,10,10,13,3,,0.00,0,,287
2012-10-14,94,74,55,60,56,47,100,66,22,30.06,29.99,29.93,10,10,10,13,2,,0.00,0,,287
2012-10-15,85,70,56,63,55,50,95,63,30,29.94,29.89,29.83,10,10,2,12,3,,0.00,0,,196
2012-10-16,86,74,62,68,64,48,100,90,26,29.88,29.83,29.73,10,4,0,10,2,,0.00,2,Fog,165
2012-10-17,91,74,59,66,58,48,100,64,24,29.83,29.77,29.73,10,10,10,10,2,,0.00,1,,231
2012-10-18,78,72,65,72,66,59,100,83,62,30.08,30.01,29.85,10,10,10,10,6,,0.00,4,,155
2012-10-19,78,68,60,68,65,61,100,96,68,30.02,29.98,29.89,10,6,1,14,1,,0.00,4,,270
2012-10-20,70,66,64,66,65,64,100,96,83,29.93,29.88,29.84,10,9,5,10,5,,0.00,8,,146
2012-10-21,72,66,61,67,64,62,100,97,73,29.93,29.89,29.86,10,10,7,12,4,,0.02,7,Rain,152
2012-10-22,71,65,60,63,60,56,100,86,60,30.01,29.96,29.91,10,10,10,13,3,23,0.00,6,Rain,209
2012-10-23,71,64,57,60,55,45,100,79,40,30.00,29.97,29.94,10,10,6,14,3,,0.00,4,Rain,197
2012-10-24,74,64,53,56,51,44,99,70,35,30.06,30.02,29.98,10,10,10,13,4,,0.00,1,,290
2012-10-25,79,63,49,56,50,42,94,67,32,30.08,30.01,29.94,10,10,10,13,4,,0.00,0,,145
2012-10-26,87,70,53,55,31,14,99,34,9,30.02,29.95,29.91,10,10,10,20,6,25,0.00,0,,42
2012-10-27,88,71,54,48,34,19,60,31,12,29.91,29.87,29.81,10,10,10,10,4,,0.00,0,,301
2012-10-28,80,66,52,63,51,41,100,65,26,30.03,29.94,29.90,10,10,10,9,2,,0.00,0,,193
2012-10-29,80,64,50,58,53,42,100,77,30,30.10,30.04,30.01,10,10,10,10,1,,0.00,0,,0
2012-10-30,76,63,51,62,54,48,100,94,37,30.08,30.05,29.97,10,4,0,9,2,,0.00,3,Fog,286
2012-10-31,70,61,53,60,57,54,100,94,71,30.07,30.03,29.97,10,5,0,8,1,,0.00,4,Fog,205